x

Big Carlos Pass, Fl (bgcf1) Weather Station

5:54am - Sun 26th Apr 2015 All times are EDT. -4 hours from GMT.

  • Wind
    20mph, 22mph gusts
  • Air Temp 82°f
  • Sea Pressure 1009.7mb
  • Big Carlos Pass, Fl
  • Big Carlos Pass, Fl

More Historic Weather Station data

Upgrade to MSW Pro to gain access to the past 30 days of data for over 8000 Wavebouys and Weather Stations around the globe.

Join Pro

Comparision Forecast

View Surf forecast
   
Sun 04/26 5:54am 20 22 mph 1009.7mb 82f
5:48am 20 22 mph 1009.5mb 82f
4:54am 18 21 mph 1009.7mb 82f
4:48am 17 21 mph 1009.8mb 82f
3:54am 14 16 mph 1010.2mb 82f
3:48am 13 15 mph 1010.4mb 82f
2:54am 11 14 mph 1011.1mb 82f
2:48am 11 14 mph 1011.1mb 82f
1:54am 13 15 mph 1011.6mb 82f
1:48am 14 16 mph 1011.6mb 82f
12:54am 13 15 mph 1012.7mb 82f
12:48am 13 14 mph 1012.8mb 82f
Sat 04/25 11:54pm 13 14 mph 1012.9mb 82f
11:48pm 11 13 mph 1013mb 82f
10:54pm 13 15 mph 1012.6mb 82f
10:48pm 11 14 mph 1012.6mb 82f
9:54pm 10 14 mph 1012mb 82f
9:48pm 10 14 mph 1012mb 82f
8:54pm 9 11 mph 1011.7mb 82f
8:48pm 8 9 mph 1011.7mb 82f
7:54pm 8 10 mph 1011.3mb 82f
7:48pm 8 10 mph 1011.3mb 82f
6:54pm 9 10 mph 1011.3mb 82f
6:48pm 9 11 mph 1011.3mb 82f
5:54pm 11 13 mph 1011.2mb 83f
5:48pm 10 11 mph 1011.3mb 83f
4:54pm 9 13 mph 1011.6mb 83f
4:48pm 9 11 mph 1011.8mb 83f
3:54pm 10 11 mph 1012.3mb 82f
3:48pm 10 11 mph 1012.3mb 83f
2:54pm 13 14 mph 1013.4mb 83f
2:48pm 13 14 mph 1013.4mb 83f
1:54pm 14 15 mph 1013.9mb 83f
1:48pm 14 15 mph 1014mb 83f
12:54pm 16 20 mph 1014.4mb 82f
12:48pm 16 18 mph 1014.5mb 82f
11:54am 13 17 mph 1014.6mb 84f
11:48am 13 17 mph 1014.5mb 83f
10:54am 13 16 mph 1014.4mb 83f
10:48am 11 16 mph 1014.4mb 83f
9:54am 11 14 mph 1014.3mb 81f
9:48am 13 16 mph 1014.3mb 81f
8:54am 7 10 mph 1014.5mb 79f
8:48am 8 10 mph 1014.5mb 79f
7:54am 7 9 mph 1014.3mb 76f
7:48am 6 9 mph 1014.3mb 76f
6:54am 8 10 mph 1013.4mb 75f
6:48am 9 11 mph 1013.4mb 75f
5:54am 7 9 mph 1013.2mb 75f
5:48am 7 10 mph 1013.1mb 75f
4:54am 6 9 mph 1012.9mb 76f
4:48am 8 10 mph 1012.9mb 76f
3:54am 9 13 mph 1013.3mb 76f
3:48am 9 13 mph 1013.4mb 76f
2:54am 9 13 mph 1013.7mb 76f
2:48am 8 11 mph 1013.7mb 77f
1:54am 8 13 mph 1014.5mb 77f
1:48am 8 11 mph 1014.6mb 78f
12:54am 10 14 mph 1015.1mb 78f
12:48am 9 14 mph 1015.2mb 78f
Fri 04/24 11:54pm 9 15 mph 1015.3mb 80f
11:48pm 9 14 mph 1015.3mb 81f
10:54pm 10 13 mph 1015.6mb 81f
10:48pm 9 11 mph 1015.6mb 81f
9:54pm 6 9 mph 1015.1mb 82f
9:48pm 6 7 mph 1015.1mb 82f
8:54pm 7 9 mph 1014.4mb 82f
8:48pm 7 10 mph 1014.3mb 82f
7:54pm 9 14 mph 1014mb 82f
7:48pm 9 17 mph 1014mb 83f
6:54pm 10 14 mph 1013.9mb 83f
6:48pm 10 15 mph 1014mb 83f
5:54pm 10 14 mph 1013.8mb 84f
5:48pm 10 15 mph 1013.7mb 84f
4:54pm 11 17 mph 1013.8mb 84f
4:48pm 11 16 mph 1013.9mb 84f
3:54pm 13 17 mph 1014.5mb 85f
3:48pm 10 18 mph 1014.5mb 85f
2:54pm 11 16 mph 1014.8mb 84f
2:48pm 9 13 mph 1014.9mb 85f
1:54pm 11 17 mph 1015.1mb 84f
1:48pm 11 17 mph 1015.2mb 84f
12:54pm 10 15 mph 1015.6mb 84f
12:48pm 9 15 mph 1015.6mb 84f
11:54am 9 15 mph 1016.1mb 84f
11:48am 9 14 mph 1016.1mb 83f
10:54am 10 15 mph 1016.6mb 82f
10:48am 8 14 mph 1016.6mb 83f
9:54am 7 10 mph 1016mb 82f
9:48am 9 11 mph 1016mb 82f
8:54am 6 8 mph 1015.5mb 81f
8:48am 7 11 mph 1015.4mb 81f
7:54am 8 10 mph 1014.8mb 81f
7:48am 6 9 mph 1014.7mb 81f
6:54am 6 9 mph 1014.5mb 81f
6:48am 7 10 mph 1014.5mb 81f
5:54am 7 10 mph 1013.8mb 81f
5:48am 7 10 mph 1013.9mb 81f
4:54am 8 10 mph 1013.8mb 80f
4:48am 7 10 mph 1013.8mb 80f
3:54am 7 9 mph 1013.5mb 81f
3:48am 7 8 mph 1013.5mb 81f
2:54am 7 10 mph 1013.9mb 80f
2:48am 3 6 mph 1013.9mb 79f
1:54am 5 6 mph 1014.4mb 78f
1:48am 3 6 mph 1014.5mb 78f
12:54am 5
mph
1015.1mb 78f
12:48am 3 5 mph 1015.1mb 78f
Thu 04/23 11:54pm 6 8 mph 1015.1mb 79f
11:48pm 3 6 mph 1015.3mb 79f
10:54pm 5 6 mph 1015.4mb 79f
10:48pm 3 5 mph 1015.5mb 79f
9:54pm 5 7 mph 1015.3mb 80f
9:48pm 3 5 mph 1015.1mb 80f
8:54pm 2 5 mph 1014.9mb 81f
8:48pm 2 3 mph 1014.8mb 81f
7:54pm 1 3 mph 1014.5mb 81f
7:48pm  -  2 mph 1014.5mb 81f
6:54pm 9 11 mph 1014mb 83f
6:48pm 9 14 mph 1014mb 82f
5:54pm 13 15 mph 1014.2mb 83f
5:48pm 13 14 mph 1014.1mb 83f
4:54pm 13 16 mph 1013.9mb 83f
4:48pm 13 15 mph 1013.8mb 83f
3:54pm 16 18 mph 1013.9mb 83f
3:48pm 16 17 mph 1013.9mb 83f
2:54pm 14 16 mph 1014.5mb 83f
2:48pm 14 15 mph 1014.4mb 82f
1:54pm 14 16 mph 1014.1mb 82f
1:48pm 15 16 mph 1014.3mb 82f
12:54pm 10 11 mph 1015mb 82f
12:48pm 10 11 mph 1015.1mb 82f
11:54am 8 10 mph 1015.5mb 82f
11:48am 8 9 mph 1015.6mb 82f